読者です 読者をやめる 読者になる 読者になる

今朝の羽田(2017/04/12)

QFA25/VH-OJS(B744)

ANA8554/JA812A(B788)

ANA968/JA874A(B788)

ANA880/JA873A(B789) R2-D2 c/s

JAL36/JA703J(B772)

ANA850/JA879A(B789)

HKE624/B-LEC(A321)

*TTW217/B-50005(A320)

JAL34/JA701J(B772)

ANA844/JA882A(B789)

*N60XC(GLEX)

ANA204/JA787A(B77W)

ANA856/JA884A(B789)

*APJ859/JA804P(A320)

*SKY737Q/JA737Q(B738)

*ANA9432/JA8609(A320)

SIA636/9V-SWU(B77W)

*AAR177/HL7795(A333)

THA682/HS-TGW(B744) STAR ALLIANCE c/s

JAL70/JA835J(B788)

*HKE625/B-LEC(A321)

BAW7-G-STBC(B77W)

RJTT 112000Z 26006KT 9999 FEW020 BKN/// 09/09 Q0997 NOSIG RMK 1CU020 A2944

RJTT 112100Z 25006KT 9999 FEW020 BKN/// 10/10 Q0998 NOSIG

RJTT 112200Z 30004KT 9999 FEW020 BKN/// 13/11 Q0999 NOSIG

今朝の羽田は晴れています。